Arlington, Colorado
Current Conditions -  °F | °C
As of 2:53 PM on Sunday 23 Nov 2014 (Local Time) from KLHX Reporting Station
Clear Clear  
Wind Chill:   Ceiling: Unl
Heat Index:   Visibility: 10mi
Dew Point: -8°   Wind: 12mph
Humidity: 31%   Direction: 350°N
Pressure: 29.77"   Gusts: NA
Location:  38.34°N, 103.34°W
Report Text: KLHX 232153Z AUTO 35010KT 10SM CLR 08/M08 A2977 RMK AO2 SLP066 T00781083 $
Loading
Personal Weather Stations






























Interactive Weather Map New forecast layout! Learn more

10-Day Weather Forecast

Advertisements
Track Severe Weather on mobile